Time;durP1;ratioP1;P1;durP2;ratioP2;P2;SDS_P1;SDS_P2;PMS_P1;PMS_P2;Temp;Humidity;BMP_temperature;BMP_pressure;BME280_temperature;BME280_humidity;BME280_pressure;Samples;Min_cycle;Max_cycle;Signal;HPM_P1;HPM_P2
2024/01/25 00:00:24;;;;;;;8.82;1.83;;;7.90;99.90;;;;;;5048586;28;20051;-65
2024/01/25 00:02:56;;;;;;;6.55;1.92;;;7.90;99.90;;;;;;5032259;28;20049;-65
2024/01/25 00:05:28;;;;;;;9.32;2.10;;;7.80;99.90;;;;;;5029947;28;20056;-66
2024/01/25 00:08:00;;;;;;;9.60;1.85;;;7.80;99.90;;;;;;5039858;28;20037;-65
2024/01/25 00:10:27;;;;;;;13.82;2.95;;;7.80;99.90;;;;;;5038079;28;20413;-65
2024/01/25 00:12:59;;;;;;;11.57;2.08;;;7.80;99.90;;;;;;5041936;28;20046;-65
2024/01/25 00:15:31;;;;;;;7.57;1.95;;;7.80;99.90;;;;;;5022281;28;20456;-65
2024/01/25 00:18:03;;;;;;;6.32;1.60;;;7.90;99.90;;;;;;5020732;28;20053;-65
2024/01/25 00:20:35;;;;;;;10.52;1.92;;;7.90;99.90;;;;;;5028753;28;20041;-65
2024/01/25 00:23:02;;;;;;;7.85;1.85;;;7.90;99.90;;;;;;5033163;28;20413;-65
2024/01/25 00:25:34;;;;;;;9.50;2.13;;;7.80;99.90;;;;;;5021071;28;20041;-65
2024/01/25 00:28:05;;;;;;;6.28;1.92;;;7.90;99.90;;;;;;5035509;28;20540;-65
2024/01/25 00:30:37;;;;;;;11.50;3.10;;;7.90;99.90;;;;;;5052623;28;20496;-65
2024/01/25 00:33:09;;;;;;;14.27;1.63;;;7.90;99.90;;;;;;5051045;28;20065;-65
2024/01/25 00:35:41;;;;;;;13.23;2.40;;;7.90;99.90;;;;;;5048600;28;20132;-65
2024/01/25 00:38:13;;;;;;;12.60;2.15;;;7.90;99.90;;;;;;5028315;28;20048;-73
2024/01/25 00:40:40;;;;;;;7.28;1.95;;;7.90;99.90;;;;;;5051150;28;20039;-65
2024/01/25 00:43:13;;;;;;;7.72;1.95;;;7.90;99.90;;;;;;5033614;28;20095;-65
2024/01/25 00:45:45;;;;;;;12.38;2.20;;;7.90;99.90;;;;;;5051406;28;20041;-66
2024/01/25 00:48:17;;;;;;;7.13;1.50;;;7.90;99.90;;;;;;5050116;28;20490;-66
2024/01/25 00:50:50;;;;;;;8.82;2.05;;;7.90;99.90;;;;;;5036714;28;20041;-65
2024/01/25 00:53:22;;;;;;;7.97;2.08;;;7.90;99.90;;;;;;5017485;28;20123;-65
2024/01/25 00:55:54;;;;;;;12.68;2.95;;;7.90;99.90;;;;;;5046647;28;20042;-65
2024/01/25 00:58:21;;;;;;;12.88;2.42;;;7.90;99.90;;;;;;5048314;28;20048;-66
2024/01/25 01:00:53;;;;;;;9.43;2.22;;;7.90;99.90;;;;;;5030806;28;20060;-65
2024/01/25 01:03:25;;;;;;;9.40;1.95;;;7.90;99.90;;;;;;5034711;28;20038;-65
2024/01/25 01:05:57;;;;;;;12.60;1.90;;;7.90;99.90;;;;;;5032836;28;20047;-65
2024/01/25 01:08:29;;;;;;;14.93;2.53;;;7.90;99.90;;;;;;5034805;28;20103;-65
2024/01/25 01:11:02;;;;;;;7.38;2.17;;;7.90;99.90;;;;;;5049474;28;20037;-65
2024/01/25 01:13:33;;;;;;;6.88;1.50;;;7.90;99.90;;;;;;5049771;28;20045;-65
2024/01/25 01:16:06;;;;;;;15.88;3.08;;;8.00;99.90;;;;;;5035651;28;20132;-65
2024/01/25 01:18:38;;;;;;;8.05;1.70;;;8.00;99.90;;;;;;5039037;28;20531;-65
2024/01/25 01:21:10;;;;;;;12.90;2.03;;;7.90;99.90;;;;;;5017524;28;20049;-66
2024/01/25 01:23:41;;;;;;;7.72;2.25;;;7.90;99.90;;;;;;5055318;28;20045;-65
2024/01/25 01:26:13;;;;;;;10.60;2.40;;;8.00;99.90;;;;;;5036359;28;20424;-65
2024/01/25 01:28:45;;;;;;;12.43;2.75;;;8.00;99.90;;;;;;5039081;28;20524;-65
2024/01/25 01:31:12;;;;;;;10.02;1.98;;;7.90;99.90;;;;;;5045868;28;20488;-65
2024/01/25 01:33:39;;;;;;;13.10;3.25;;;7.90;99.90;;;;;;5041230;28;20072;-65
2024/01/25 01:36:10;;;;;;;6.82;2.08;;;7.90;99.90;;;;;;5034290;28;20049;-66
2024/01/25 01:38:42;;;;;;;9.55;1.67;;;7.90;99.90;;;;;;5042251;28;20052;-65
2024/01/25 01:41:13;;;;;;;12.18;2.30;;;7.90;99.90;;;;;;5048372;28;20033;-65
2024/01/25 01:43:45;;;;;;;8.50;1.52;;;7.90;99.90;;;;;;5037593;28;20069;-65
2024/01/25 01:46:34;;;;;;;14.68;2.50;;;7.90;99.90;;;;;;5051452;28;20045;-65
2024/01/25 01:49:08;;;;;;;8.77;1.98;;;7.90;99.90;;;;;;5035243;28;20055;-65
2024/01/25 01:51:44;;;;;;;9.35;1.60;;;7.90;99.90;;;;;;5024228;28;20038;-65
2024/01/25 01:54:16;;;;;;;10.25;2.13;;;7.80;99.90;;;;;;5038225;28;20068;-65
2024/01/25 01:56:48;;;;;;;10.77;1.73;;;7.90;99.90;;;;;;5037966;28;20065;-65
2024/01/25 01:59:21;;;;;;;14.02;2.50;;;7.90;99.90;;;;;;5034429;28;20132;-65
2024/01/25 02:01:53;;;;;;;15.57;1.98;;;7.80;99.90;;;;;;5040493;28;20049;-65
2024/01/25 02:04:24;;;;;;;12.00;1.80;;;7.90;99.90;;;;;;5039915;28;20041;-65
2024/01/25 02:06:51;;;;;;;9.80;2.50;;;7.90;99.90;;;;;;5037326;28;20077;-65
2024/01/25 02:09:23;;;;;;;13.85;1.70;;;8.00;99.90;;;;;;5038880;28;20530;-65
2024/01/25 02:12:02;;;;;;;7.13;1.77;;;8.00;99.90;;;;;;5035265;28;20045;-65
2024/01/25 02:14:34;;;;;;;8.25;1.45;;;8.10;99.90;;;;;;5044021;28;20068;-65
2024/01/25 02:17:01;;;;;;;13.45;2.10;;;8.10;99.90;;;;;;5049980;28;20098;-65
2024/01/25 02:19:33;;;;;;;8.75;1.90;;;8.00;99.90;;;;;;5046426;28;20037;-65
2024/01/25 02:22:06;;;;;;;9.15;2.42;;;7.90;99.90;;;;;;5032054;28;20041;-65
2024/01/25 02:24:37;;;;;;;10.57;1.95;;;7.90;99.90;;;;;;5032217;28;20099;-65
2024/01/25 02:27:09;;;;;;;11.07;2.38;;;7.90;99.90;;;;;;5043305;28;20039;-65
2024/01/25 02:29:41;;;;;;;7.25;1.52;;;7.90;99.90;;;;;;5043150;28;20051;-65
2024/01/25 02:32:13;;;;;;;9.60;2.40;;;7.80;99.90;;;;;;5042578;28;20513;-65
2024/01/25 02:34:40;;;;;;;8.82;1.70;;;7.80;99.90;;;;;;5047276;28;20132;-65
2024/01/25 02:37:12;;;;;;;14.52;2.00;;;7.80;99.90;;;;;;5036988;28;20045;-65
2024/01/25 02:39:44;;;;;;;9.88;1.80;;;7.80;99.90;;;;;;5050962;28;20091;-65
2024/01/25 02:42:16;;;;;;;9.15;1.88;;;7.80;99.90;;;;;;5049811;28;20040;-65
2024/01/25 02:44:49;;;;;;;6.85;1.30;;;7.80;99.90;;;;;;5035031;28;20045;-65
2024/01/25 02:47:21;;;;;;;7.38;2.22;;;7.90;99.90;;;;;;5038707;28;20421;-65
2024/01/25 02:49:52;;;;;;;9.85;1.80;;;7.90;99.90;;;;;;5038447;28;20079;-66
2024/01/25 02:52:24;;;;;;;6.07;1.40;;;7.90;99.90;;;;;;5040522;28;20072;-65
2024/01/25 02:54:56;;;;;;;5.80;1.73;;;7.90;99.90;;;;;;5024818;28;20052;-65
2024/01/25 02:57:31;;;;;;;6.78;1.48;;;8.00;99.90;;;;;;5032432;28;20064;-65
2024/01/25 03:00:04;;;;;;;7.70;2.78;;;8.00;99.90;;;;;;5021688;28;20497;-65
2024/01/25 03:02:35;;;;;;;9.13;1.95;;;8.00;99.90;;;;;;5019625;28;20054;-65
2024/01/25 03:05:02;;;;;;;8.55;1.50;;;8.00;99.90;;;;;;5027939;28;20067;-65
2024/01/25 03:07:34;;;;;;;10.88;4.20;;;7.90;99.90;;;;;;5032723;28;20099;-65
2024/01/25 03:10:06;;;;;;;5.95;1.55;;;7.90;99.90;;;;;;5030318;28;20083;-65
2024/01/25 03:12:33;;;;;;;12.23;2.38;;;7.80;99.90;;;;;;5030937;28;20508;-65
2024/01/25 03:15:06;;;;;;;7.45;2.25;;;7.80;99.90;;;;;;5042520;28;20090;-65
2024/01/25 03:17:38;;;;;;;9.33;1.87;;;7.80;99.90;;;;;;5042939;28;20041;-65
2024/01/25 03:20:10;;;;;;;9.88;1.85;;;7.80;99.90;;;;;;5031499;28;20042;-65
2024/01/25 03:22:42;;;;;;;7.85;1.50;;;7.80;99.90;;;;;;5020268;28;20052;-65
2024/01/25 03:25:14;;;;;;;9.02;1.95;;;7.70;99.90;;;;;;5030597;28;20128;-65
2024/01/25 03:27:45;;;;;;;10.77;1.90;;;7.70;99.90;;;;;;5031197;28;20791;-66
2024/01/25 03:30:17;;;;;;;9.88;2.22;;;7.70;99.90;;;;;;5037405;28;20049;-67
2024/01/25 03:32:49;;;;;;;9.45;1.50;;;7.70;99.90;;;;;;5039079;28;20045;-65
2024/01/25 03:35:21;;;;;;;6.63;1.35;;;7.70;99.90;;;;;;5013655;28;20128;-65
2024/01/25 03:37:53;;;;;;;4.85;1.25;;;7.70;99.90;;;;;;5034196;28;20052;-65
2024/01/25 03:40:25;;;;;;;8.98;1.90;;;7.60;99.90;;;;;;5044050;28;20042;-65
2024/01/25 03:42:56;;;;;;;6.88;1.90;;;7.70;99.90;;;;;;5039072;28;20038;-65
2024/01/25 03:45:30;;;;;;;7.63;1.70;;;7.60;99.90;;;;;;5039685;28;20536;-65
2024/01/25 03:48:02;;;;;;;6.45;1.67;;;7.60;99.90;;;;;;5030278;28;20482;-65
2024/01/25 03:50:34;;;;;;;8.35;1.90;;;7.60;99.90;;;;;;5043182;28;20781;-65
2024/01/25 03:53:06;;;;;;;11.77;2.45;;;7.60;99.90;;;;;;5025471;28;20081;-65
2024/01/25 03:55:38;;;;;;;10.93;2.40;;;7.60;99.90;;;;;;5032918;28;20124;-65
2024/01/25 03:58:09;;;;;;;10.40;2.10;;;7.60;99.90;;;;;;5028988;28;20045;-65
2024/01/25 04:00:41;;;;;;;8.23;1.73;;;7.60;99.90;;;;;;5039875;28;20096;-65
2024/01/25 04:03:13;;;;;;;7.32;1.65;;;7.60;99.90;;;;;;5021230;28;20391;-65
2024/01/25 04:05:40;;;;;;;5.43;1.17;;;7.50;99.90;;;;;;5024261;28;20041;-65
2024/01/25 04:08:12;;;;;;;10.70;2.42;;;7.50;99.90;;;;;;5043749;28;20417;-65
2024/01/25 04:10:44;;;;;;;8.27;1.38;;;7.50;99.90;;;;;;5042530;28;20422;-65
2024/01/25 04:13:15;;;;;;;11.93;2.08;;;7.50;99.90;;;;;;5024080;28;20081;-65
2024/01/25 04:15:42;;;;;;;5.80;1.50;;;7.40;99.90;;;;;;5043281;28;20409;-65
2024/01/25 04:18:09;;;;;;;9.75;1.45;;;7.40;99.90;;;;;;5029551;28;20041;-65
2024/01/25 04:20:41;;;;;;;4.18;1.10;;;7.40;99.90;;;;;;5046577;28;20051;-65
2024/01/25 04:23:13;;;;;;;7.47;2.07;;;7.40;99.90;;;;;;5043217;28;20152;-65
2024/01/25 04:25:45;;;;;;;8.35;1.60;;;7.40;99.90;;;;;;5029881;28;20556;-65
2024/01/25 04:28:17;;;;;;;4.43;1.60;;;7.30;99.90;;;;;;5027628;28;20414;-65
2024/01/25 04:30:49;;;;;;;14.05;2.35;;;7.30;99.90;;;;;;5016211;28;20049;-65
2024/01/25 04:33:21;;;;;;;6.60;1.40;;;7.30;99.90;;;;;;5037544;28;20041;-65
2024/01/25 04:35:52;;;;;;;10.30;1.80;;;7.30;99.90;;;;;;5031267;28;20160;-65
2024/01/25 04:38:24;;;;;;;6.72;1.20;;;7.30;99.90;;;;;;5039415;28;20036;-65
2024/01/25 04:40:56;;;;;;;9.32;1.20;;;7.30;99.90;;;;;;5030260;28;20133;-65
2024/01/25 04:43:28;;;;;;;8.80;1.52;;;7.30;99.90;;;;;;5034602;28;20038;-65
2024/01/25 04:45:55;;;;;;;6.05;1.27;;;7.30;99.90;;;;;;5038248;28;20041;-65
2024/01/25 04:48:27;;;;;;;9.77;1.58;;;7.30;99.90;;;;;;5020938;28;20042;-65
2024/01/25 04:50:59;;;;;;;11.32;2.30;;;7.30;99.90;;;;;;5031477;28;20045;-65
2024/01/25 04:53:30;;;;;;;9.85;1.50;;;7.30;99.90;;;;;;5034435;28;20045;-65
2024/01/25 04:56:02;;;;;;;5.25;1.55;;;7.30;99.90;;;;;;5033395;28;20109;-65
2024/01/25 04:58:34;;;;;;;8.45;1.38;;;7.30;99.90;;;;;;5030701;28;20065;-65
2024/01/25 05:01:06;;;;;;;7.15;1.60;;;7.30;99.90;;;;;;5039076;28;20124;-68
2024/01/25 05:03:38;;;;;;;9.75;1.48;;;7.30;99.90;;;;;;5043809;28;20059;-65
2024/01/25 05:06:10;;;;;;;7.60;1.35;;;7.30;99.90;;;;;;5042972;28;20524;-66
2024/01/25 05:08:43;;;;;;;6.65;1.80;;;7.30;99.90;;;;;;5031329;28;20047;-66
2024/01/25 05:11:15;;;;;;;6.83;1.20;;;7.30;99.90;;;;;;5044024;28;20041;-66
2024/01/25 05:13:41;;;;;;;5.10;1.42;;;7.30;99.90;;;;;;5051509;28;20279;-65
2024/01/25 05:16:13;;;;;;;5.70;1.45;;;7.30;99.90;;;;;;5040357;28;20060;-65
2024/01/25 05:18:41;;;;;;;5.70;1.60;;;7.30;99.90;;;;;;5022942;28;20056;-65
2024/01/25 05:21:13;;;;;;;4.55;1.02;;;7.30;99.90;;;;;;5030717;28;20577;-65
2024/01/25 05:23:45;;;;;;;7.80;1.20;;;7.30;99.90;;;;;;5036231;28;20040;-65
2024/01/25 05:26:12;;;;;;;3.25;1.30;;;7.30;99.90;;;;;;5034690;28;20671;-65
2024/01/25 05:28:39;;;;;;;7.65;1.42;;;7.30;99.90;;;;;;5036271;28;20040;-65
2024/01/25 05:31:14;;;;;;;4.72;1.35;;;7.30;99.90;;;;;;5035116;28;20114;-65
2024/01/25 05:33:47;;;;;;;5.65;1.27;;;7.30;99.90;;;;;;5036234;28;20045;-65
2024/01/25 05:36:13;;;;;;;6.00;1.48;;;7.30;99.90;;;;;;5051234;28;20033;-65
2024/01/25 05:38:46;;;;;;;8.57;1.42;;;7.20;99.90;;;;;;5051779;28;20050;-65
2024/01/25 05:41:18;;;;;;;7.50;1.30;;;7.20;99.90;;;;;;5046462;28;20099;-65
2024/01/25 05:43:51;;;;;;;7.18;2.08;;;7.20;99.90;;;;;;5019975;28;20048;-65
2024/01/25 05:46:17;;;;;;;8.95;1.90;;;7.20;99.90;;;;;;5035042;28;20043;-65
2024/01/25 05:48:50;;;;;;;7.45;1.63;;;7.20;99.90;;;;;;5040284;28;20493;-65
2024/01/25 05:51:22;;;;;;;8.07;2.00;;;7.20;99.90;;;;;;5047682;28;20045;-66
2024/01/25 05:53:54;;;;;;;5.95;1.13;;;7.20;99.90;;;;;;5049591;28;20032;-65
2024/01/25 05:56:25;;;;;;;6.68;1.33;;;7.20;99.90;;;;;;5032942;28;20611;-65
2024/01/25 05:58:57;;;;;;;7.65;3.05;;;7.20;99.90;;;;;;5047621;28;20075;-65
2024/01/25 06:01:29;;;;;;;8.77;2.17;;;7.20;99.90;;;;;;5041382;28;20411;-65
2024/01/25 06:04:01;;;;;;;11.70;2.03;;;7.20;99.90;;;;;;5045253;28;20136;-65
2024/01/25 06:06:33;;;;;;;9.18;2.05;;;7.20;99.90;;;;;;5025010;28;20501;-65
2024/01/25 06:09:05;;;;;;;9.57;1.60;;;7.10;99.90;;;;;;5035442;28;20064;-65
2024/01/25 06:11:37;;;;;;;6.28;1.73;;;7.10;99.90;;;;;;5046455;28;20045;-65
2024/01/25 06:14:09;;;;;;;9.00;1.70;;;7.10;99.90;;;;;;5043982;28;20124;-66
2024/01/25 06:16:41;;;;;;;7.03;1.40;;;7.10;99.90;;;;;;5031532;28;20042;-65
2024/01/25 06:19:13;;;;;;;11.35;1.70;;;7.00;99.90;;;;;;5030620;28;20048;-65
2024/01/25 06:21:45;;;;;;;9.68;1.92;;;7.00;99.90;;;;;;5039918;28;20078;-65
2024/01/25 06:24:17;;;;;;;8.27;1.40;;;6.90;99.90;;;;;;5033909;28;20518;-65
2024/01/25 06:26:49;;;;;;;7.05;1.38;;;6.90;99.90;;;;;;5038628;28;20044;-65
2024/01/25 06:29:21;;;;;;;5.95;2.10;;;6.80;99.90;;;;;;5031932;28;20073;-65
2024/01/25 06:31:53;;;;;;;5.50;1.52;;;6.80;99.90;;;;;;5039809;28;20051;-65
2024/01/25 06:34:25;;;;;;;3.05;1.23;;;6.80;99.90;;;;;;5042071;28;20049;-65
2024/01/25 06:36:56;;;;;;;5.25;1.40;;;6.80;99.90;;;;;;5042191;28;20042;-65
2024/01/25 06:39:29;;;;;;;6.13;2.17;;;6.70;99.90;;;;;;5032253;28;20041;-65
2024/01/25 06:42:00;;;;;;;8.10;1.80;;;6.70;99.90;;;;;;5033862;28;20503;-65
2024/01/25 06:44:34;;;;;;;9.38;2.45;;;6.70;99.90;;;;;;5024422;28;20585;-65
2024/01/25 06:47:05;;;;;;;9.40;2.00;;;6.70;99.90;;;;;;5014868;28;20114;-65
2024/01/25 06:49:37;;;;;;;5.72;1.60;;;6.70;99.90;;;;;;5041477;28;20042;-65
2024/01/25 06:52:09;;;;;;;10.48;1.60;;;6.70;99.90;;;;;;5030875;28;20048;-65
2024/01/25 06:54:41;;;;;;;10.93;2.00;;;6.70;99.90;;;;;;5044346;28;20417;-65
2024/01/25 06:57:14;;;;;;;11.30;1.70;;;6.60;99.90;;;;;;5039160;28;20052;-65
2024/01/25 06:59:46;;;;;;;6.95;1.60;;;6.60;99.90;;;;;;5042255;28;20107;-65
2024/01/25 07:02:17;;;;;;;7.28;1.80;;;6.60;99.90;;;;;;5048528;28;20520;-65
2024/01/25 07:04:52;;;;;;;8.70;1.90;;;6.50;99.90;;;;;;5038640;28;20075;-65
2024/01/25 07:07:24;;;;;;;7.30;2.20;;;6.40;99.90;;;;;;5031788;28;20123;-65
2024/01/25 07:09:56;;;;;;;9.80;1.73;;;6.40;99.90;;;;;;5025236;28;20509;-65
2024/01/25 07:12:29;;;;;;;8.65;1.80;;;6.30;99.90;;;;;;5029910;28;20055;-65
2024/01/25 07:14:55;;;;;;;9.57;1.90;;;6.30;99.90;;;;;;5042057;28;20044;-65
2024/01/25 07:17:27;;;;;;;5.07;1.70;;;6.30;99.90;;;;;;5045103;28;20044;-65
2024/01/25 07:19:59;;;;;;;4.57;1.20;;;6.20;99.90;;;;;;5039185;28;20068;-65
2024/01/25 07:22:31;;;;;;;6.75;1.50;;;6.20;99.90;;;;;;5038434;28;20408;-65
2024/01/25 07:25:03;;;;;;;6.05;1.55;;;6.20;99.90;;;;;;5046728;28;20051;-65
2024/01/25 07:27:36;;;;;;;9.38;2.00;;;6.20;99.90;;;;;;5029805;28;20128;-65
2024/01/25 07:30:08;;;;;;;8.93;2.67;;;6.30;99.90;;;;;;5030088;28;20053;-65
2024/01/25 07:32:45;;;;;;;7.40;2.22;;;6.30;99.90;;;;;;5028672;28;20042;-65
2024/01/25 07:35:17;;;;;;;9.02;2.03;;;6.30;99.90;;;;;;5044903;28;20044;-65
2024/01/25 07:37:49;;;;;;;9.48;1.88;;;6.20;99.90;;;;;;5042873;28;20091;-65
2024/01/25 07:40:21;;;;;;;7.30;2.10;;;6.30;99.90;;;;;;5018246;28;20141;-65
2024/01/25 07:42:48;;;;;;;12.82;3.35;;;6.30;99.90;;;;;;5039677;28;20041;-66
2024/01/25 07:45:19;;;;;;;8.77;3.78;;;6.30;99.90;;;;;;5040656;28;20178;-65
2024/01/25 07:47:52;;;;;;;9.43;4.65;;;6.30;99.90;;;;;;5031951;28;20111;-65
2024/01/25 07:50:18;;;;;;;11.90;4.03;;;6.30;99.90;;;;;;5026318;28;20040;-65
2024/01/25 07:52:50;;;;;;;6.07;2.05;;;6.30;99.90;;;;;;5015080;28;20045;-65
2024/01/25 07:55:22;;;;;;;10.55;2.50;;;6.40;99.90;;;;;;5032985;28;20490;-65
2024/01/25 07:57:54;;;;;;;13.05;2.97;;;6.40;99.90;;;;;;5032699;28;20053;-65
2024/01/25 08:00:21;;;;;;;11.07;3.17;;;6.40;99.90;;;;;;5027895;28;20047;-65
2024/01/25 08:02:53;;;;;;;11.80;2.60;;;6.50;99.90;;;;;;5034226;28;20639;-65
2024/01/25 08:05:25;;;;;;;12.60;2.83;;;6.60;99.90;;;;;;5032342;28;20045;-65
2024/01/25 08:07:57;;;;;;;7.88;2.97;;;6.60;99.90;;;;;;5042638;28;20037;-65
2024/01/25 08:10:23;;;;;;;15.98;4.55;;;6.70;99.90;;;;;;5043398;28;20156;-65
2024/01/25 08:12:55;;;;;;;11.63;2.20;;;6.80;99.90;;;;;;5046364;28;20069;-65
2024/01/25 08:15:28;;;;;;;9.15;2.45;;;6.80;99.90;;;;;;5043495;28;20044;-65
2024/01/25 08:18:00;;;;;;;10.38;2.35;;;6.90;99.90;;;;;;5039235;28;20048;-65
2024/01/25 08:20:26;;;;;;;9.02;2.58;;;6.90;99.90;;;;;;5034521;28;20033;-65
2024/01/25 08:22:59;;;;;;;15.68;2.90;;;7.00;99.90;;;;;;5038130;28;20050;-65
2024/01/25 08:25:31;;;;;;;15.52;3.30;;;7.00;99.90;;;;;;5037798;28;20045;-65
2024/01/25 08:27:57;;;;;;;11.57;2.88;;;7.00;99.90;;;;;;5031139;28;20175;-66
2024/01/25 08:30:29;;;;;;;10.55;3.20;;;7.10;99.90;;;;;;5038598;28;20039;-65
2024/01/25 08:33:01;;;;;;;9.75;2.70;;;7.00;99.90;;;;;;5040635;28;20048;-65
2024/01/25 08:35:30;;;;;;;12.15;4.72;;;7.00;99.90;;;;;;5038359;28;20041;-65
2024/01/25 08:38:02;;;;;;;;;;;7.10;99.90;;;;;;5029087;28;20413;-65
2024/01/25 08:40:34;;;;;;;11.50;3.55;;;7.10;99.90;;;;;;5038531;28;19921;-65
2024/01/25 08:43:06;;;;;;;11.05;3.03;;;7.10;99.90;;;;;;5044284;28;20134;-65
2024/01/25 08:45:33;;;;;;;14.55;3.33;;;7.10;99.90;;;;;;5039209;28;20083;-65
2024/01/25 08:48:06;;;;;;;10.23;2.45;;;7.10;99.90;;;;;;5044534;28;20048;-65
2024/01/25 08:50:37;;;;;;;9.60;2.63;;;7.30;99.90;;;;;;5037620;28;20588;-65
2024/01/25 08:53:09;;;;;;;9.07;2.38;;;7.40;99.90;;;;;;5044353;28;20041;-65
2024/01/25 08:55:41;;;;;;;13.68;2.50;;;7.40;99.90;;;;;;5047206;28;20045;-65
2024/01/25 08:58:13;;;;;;;8.95;2.40;;;7.40;99.90;;;;;;5019322;28;20127;-65
2024/01/25 09:00:45;;;;;;;19.92;4.68;;;7.40;99.90;;;;;;5044030;28;20037;-65
2024/01/25 09:03:18;;;;;;;13.70;4.50;;;7.50;99.90;;;;;;5042928;28;20417;-65
2024/01/25 09:05:50;;;;;;;20.00;7.47;;;7.60;99.90;;;;;;5031562;28;20083;-65
2024/01/25 09:08:17;;;;;;;13.10;4.95;;;7.70;99.90;;;;;;5049271;28;20041;-65
2024/01/25 09:10:48;;;;;;;14.52;6.03;;;7.80;99.90;;;;;;5049603;28;20556;-64
2024/01/25 09:13:15;;;;;;;18.55;3.65;;;7.90;99.90;;;;;;5044613;28;21335;-65
2024/01/25 09:15:43;;;;;;;12.85;4.68;;;7.90;99.90;;;;;;5032188;28;20568;-65
2024/01/25 09:18:15;;;;;;;18.08;7.57;;;7.90;99.90;;;;;;5040883;28;20154;-65
2024/01/25 09:20:48;;;;;;;47.92;18.98;;;8.00;99.90;;;;;;5040461;28;20101;-65
2024/01/25 09:23:20;;;;;;;16.07;6.53;;;8.00;99.90;;;;;;5042152;28;20072;-65
2024/01/25 09:25:51;;;;;;;27.85;11.10;;;8.00;99.90;;;;;;5049263;28;20047;-65
2024/01/25 09:28:23;;;;;;;12.10;2.67;;;8.00;99.90;;;;;;5034551;28;20044;-65
2024/01/25 09:30:55;;;;;;;42.67;18.38;;;7.90;99.90;;;;;;5043321;28;20484;-65
2024/01/25 09:33:27;;;;;;;36.97;16.70;;;8.00;99.90;;;;;;5027296;28;20399;-65
2024/01/25 09:35:53;;;;;;;51.92;26.85;;;7.90;99.90;;;;;;5044578;28;20041;-65
2024/01/25 09:38:20;;;;;;;32.47;14.23;;;7.90;99.90;;;;;;5034853;28;20482;-65
2024/01/25 09:40:48;;;;;;;16.73;6.85;;;7.90;99.90;;;;;;5042706;28;20055;-65
2024/01/25 09:43:15;;;;;;;14.82;4.38;;;7.80;99.90;;;;;;5018421;28;20147;-65
2024/01/25 09:45:44;;;;;;;17.02;4.30;;;7.90;99.90;;;;;;5037207;28;20037;-65
2024/01/25 09:48:16;;;;;;;17.05;3.55;;;7.90;99.90;;;;;;5036727;28;20048;-65
2024/01/25 09:50:48;;;;;;;12.60;3.92;;;7.80;99.90;;;;;;5039825;28;20132;-65
2024/01/25 09:53:24;;;;;;;15.93;5.15;;;7.80;99.90;;;;;;5032599;28;20051;-65
2024/01/25 09:56:19;;;;;;;21.25;9.70;;;7.80;99.90;;;;;;5031716;28;20512;-65
2024/01/25 09:58:52;;;;;;;15.95;5.97;;;7.80;99.90;;;;;;5044225;28;20040;-65
2024/01/25 10:01:24;;;;;;;13.87;4.17;;;7.90;99.90;;;;;;5041296;28;20073;-66
2024/01/25 10:03:56;;;;;;;21.73;10.15;;;7.90;99.90;;;;;;5034338;28;20042;-65
2024/01/25 10:06:28;;;;;;;16.55;3.85;;;8.00;99.90;;;;;;5034107;28;20506;-65
2024/01/25 10:09:00;;;;;;;12.77;3.33;;;8.00;99.90;;;;;;5050252;28;20114;-65
2024/01/25 10:11:35;;;;;;;10.10;2.42;;;8.10;99.90;;;;;;5033755;28;20042;-65
2024/01/25 10:14:08;;;;;;;15.10;6.55;;;8.10;99.90;;;;;;5044666;28;20156;-65
2024/01/25 10:16:35;;;;;;;17.20;5.10;;;8.10;99.90;;;;;;5032505;28;20052;-65
2024/01/25 10:19:07;;;;;;;14.73;3.78;;;8.10;99.90;;;;;;5044043;28;20064;-65
2024/01/25 10:21:36;;;;;;;12.15;2.63;;;8.00;99.90;;;;;;5043071;28;20711;-65
2024/01/25 10:24:09;;;;;;;11.80;2.97;;;8.00;99.90;;;;;;5038618;28;20045;-65
2024/01/25 10:26:36;;;;;;;11.63;2.35;;;8.00;99.90;;;;;;5036576;28;20136;-65
2024/01/25 10:29:09;;;;;;;13.38;3.20;;;7.90;99.90;;;;;;5036552;28;20072;-65
2024/01/25 10:31:42;;;;;;;11.57;2.88;;;8.00;99.90;;;;;;5035553;28;20413;-65
2024/01/25 10:34:15;;;;;;;9.82;2.63;;;8.00;99.90;;;;;;5030569;28;20529;-65
2024/01/25 10:36:48;;;;;;;14.45;3.17;;;8.00;99.90;;;;;;5047543;28;20053;-65
2024/01/25 10:39:21;;;;;;;13.07;3.58;;;8.10;99.90;;;;;;5034773;28;20044;-64
2024/01/25 10:41:54;;;;;;;11.52;2.75;;;8.10;99.90;;;;;;5030031;28;20052;-65
2024/01/25 10:44:26;;;;;;;12.40;2.85;;;8.10;99.90;;;;;;5041280;28;20041;-65
2024/01/25 10:46:59;;;;;;;9.23;3.43;;;8.00;99.90;;;;;;5040350;28;20509;-65
2024/01/25 10:49:32;;;;;;;9.40;2.38;;;8.00;99.90;;;;;;5022258;28;20116;-65
2024/01/25 10:51:59;;;;;;;11.50;2.70;;;8.10;99.90;;;;;;5039102;28;20038;-65
2024/01/25 10:54:34;;;;;;;14.43;2.70;;;8.20;99.90;;;;;;5030099;28;20057;-65
2024/01/25 10:57:06;;;;;;;13.40;2.53;;;8.30;99.90;;;;;;5026639;28;20036;-65
2024/01/25 10:59:38;;;;;;;13.85;3.03;;;8.40;99.90;;;;;;5036488;28;20591;-65
2024/01/25 11:02:10;;;;;;;13.20;2.25;;;8.50;99.90;;;;;;5026184;28;20098;-64
2024/01/25 11:04:37;;;;;;;13.32;2.83;;;8.60;99.90;;;;;;5046911;28;20037;-65
2024/01/25 11:07:09;;;;;;;10.65;2.10;;;8.60;99.90;;;;;;5038932;28;20041;-65
2024/01/25 11:09:44;;;;;;;11.25;2.63;;;8.70;99.90;;;;;;5042765;28;20036;-65
2024/01/25 11:12:19;;;;;;;9.27;2.08;;;8.70;99.90;;;;;;5029613;28;20041;-65
2024/01/25 11:14:55;;;;;;;8.85;2.25;;;8.80;99.90;;;;;;5042104;28;20037;-65
2024/01/25 11:17:33;;;;;;;7.97;2.05;;;8.80;99.90;;;;;;5036552;28;20049;-64
2024/01/25 11:20:12;;;;;;;12.95;2.42;;;8.80;99.90;;;;;;5044932;28;20033;-65
2024/01/25 11:22:45;;;;;;;8.55;2.22;;;8.80;99.90;;;;;;5018251;28;20048;-65
2024/01/25 11:25:20;;;;;;;11.63;3.30;;;8.80;99.90;;;;;;5048711;28;20119;-65
2024/01/25 11:27:53;;;;;;;7.43;2.33;;;8.90;99.90;;;;;;5037640;28;20366;-65
2024/01/25 11:30:34;;;;;;;8.80;2.72;;;8.90;99.90;;;;;;5046490;28;20041;-65
2024/01/25 11:33:05;;;;;;;15.82;2.38;;;8.80;99.90;;;;;;5043941;28;20152;-64
2024/01/25 11:35:37;;;;;;;21.00;3.42;;;8.70;99.90;;;;;;5030155;28;20053;-65
2024/01/25 11:38:09;;;;;;;19.80;5.00;;;8.60;99.90;;;;;;5042107;28;20808;-65
2024/01/25 11:40:41;;;;;;;15.27;3.75;;;8.60;99.90;;;;;;5044070;28;20072;-65
2024/01/25 11:43:14;;;;;;;11.18;3.22;;;8.50;99.90;;;;;;5047400;28;20099;-65
2024/01/25 11:45:45;;;;;;;10.10;2.20;;;8.50;99.90;;;;;;5042742;28;20035;-65
2024/01/25 11:48:12;;;;;;;10.38;2.53;;;8.50;99.90;;;;;;5027013;28;20472;-65
2024/01/25 11:50:44;;;;;;;12.13;3.05;;;8.50;99.90;;;;;;5029270;28;20045;-67
2024/01/25 11:53:16;;;;;;;11.38;2.47;;;8.50;99.90;;;;;;5034420;28;20107;-65
2024/01/25 11:55:48;;;;;;;8.57;2.00;;;8.50;99.90;;;;;;5047926;28;20056;-65
2024/01/25 11:58:20;;;;;;;10.75;2.30;;;8.50;99.90;;;;;;5048262;28;20041;-65
2024/01/25 12:00:47;;;;;;;8.63;2.38;;;8.50;99.90;;;;;;5048975;28;20045;-65
2024/01/25 12:03:20;;;;;;;12.30;2.22;;;8.60;99.90;;;;;;5032057;28;20425;-65
2024/01/25 12:05:52;;;;;;;11.88;2.33;;;8.60;99.90;;;;;;5045024;28;20509;-65
2024/01/25 12:08:24;;;;;;;8.95;1.88;;;8.70;99.90;;;;;;5040628;28;20041;-65
2024/01/25 12:10:51;;;;;;;13.40;2.47;;;8.70;99.90;;;;;;5029929;28;20060;-65
2024/01/25 12:13:23;;;;;;;8.05;2.38;;;8.70;99.90;;;;;;5047003;28;20132;-65
2024/01/25 12:15:55;;;;;;;14.60;3.35;;;8.70;99.90;;;;;;5027156;28;20118;-65
2024/01/25 12:18:28;;;;;;;8.82;2.15;;;8.90;99.90;;;;;;5028136;28;20061;-65
2024/01/25 12:21:05;;;;;;;10.50;2.38;;;8.90;99.90;;;;;;5046348;28;20052;-64
2024/01/25 12:23:38;;;;;;;11.18;3.00;;;9.00;99.90;;;;;;5054829;28;20411;-64
2024/01/25 12:26:10;;;;;;;;;;;9.00;99.90;;;;;;5040020;28;20446;-65
2024/01/25 12:28:46;;;;;;;12.32;2.47;;;9.00;99.90;;;;;;5042060;28;19927;-65
2024/01/25 12:31:18;;;;;;;12.13;2.23;;;9.00;99.90;;;;;;5043834;28;20045;-65
2024/01/25 12:33:50;;;;;;;10.38;3.47;;;9.00;99.90;;;;;;5051155;28;20421;-65
2024/01/25 12:36:17;;;;;;;11.45;2.63;;;9.00;99.90;;;;;;5047295;28;20141;-65
2024/01/25 12:38:49;;;;;;;14.45;2.60;;;9.00;99.90;;;;;;5039453;28;20052;-65
2024/01/25 12:41:21;;;;;;;8.80;2.00;;;9.10;99.90;;;;;;5036009;28;20079;-64
2024/01/25 12:43:53;;;;;;;9.43;3.30;;;9.10;99.90;;;;;;5046158;28;20041;-65
2024/01/25 12:46:25;;;;;;;11.00;2.20;;;9.10;99.90;;;;;;5022868;28;20037;-65
2024/01/25 12:48:58;;;;;;;12.82;5.18;;;9.10;99.90;;;;;;5033249;28;20139;-65
2024/01/25 12:51:30;;;;;;;7.37;2.07;;;9.20;99.90;;;;;;5043054;28;20041;-65
2024/01/25 12:53:57;;;;;;;9.65;2.40;;;9.20;99.90;;;;;;5036040;28;20724;-66
2024/01/25 12:56:28;;;;;;;9.60;1.83;;;9.30;99.90;;;;;;5054581;28;20036;-65
2024/01/25 12:59:00;;;;;;;7.20;2.47;;;9.30;99.90;;;;;;5052456;28;20115;-65
2024/01/25 13:01:27;;;;;;;10.57;1.90;;;9.40;99.90;;;;;;5054133;28;20048;-65
2024/01/25 13:03:54;;;;;;;10.00;1.85;;;9.50;99.90;;;;;;5045030;28;20497;-65
2024/01/25 13:06:26;;;;;;;10.15;1.95;;;9.70;99.90;;;;;;5050250;28;20079;-65
2024/01/25 13:08:58;;;;;;;10.48;2.85;;;9.70;99.90;;;;;;5041822;28;20101;-66
2024/01/25 13:11:25;;;;;;;9.35;1.90;;;9.70;99.90;;;;;;5055839;28;21148;-64
2024/01/25 13:13:57;;;;;;;7.93;1.67;;;9.70;99.90;;;;;;5043273;28;20037;-64